地図

経路データ

SID SEASON NUMBER BASIN SUBBASIN NAME ISO_TIME NATURE LAT LON WMO_WIND WMO_PRES WMO_AGENCY TRACK_TYPE DIST2LAND LANDFALL IFLAG USA_AGENCY USA_ATCF_ID USA_LAT USA_LON USA_RECORD USA_STATUS USA_WIND USA_PRES USA_SSHS USA_R34_NE USA_R34_SE USA_R34_SW USA_R34_NW USA_R50_NE USA_R50_SE USA_R50_SW USA_R50_NW USA_R64_NE USA_R64_SE USA_R64_SW USA_R64_NW USA_POCI USA_ROCI USA_RMW USA_EYE TOKYO_LAT TOKYO_LON TOKYO_GRADE TOKYO_WIND TOKYO_PRES TOKYO_R50_DIR TOKYO_R50_LONG TOKYO_R50_SHORT TOKYO_R30_DIR TOKYO_R30_LONG TOKYO_R30_SHORT TOKYO_LAND CMA_LAT CMA_LON CMA_CAT CMA_WIND CMA_PRES HKO_LAT HKO_LON HKO_CAT HKO_WIND HKO_PRES NEWDELHI_LAT NEWDELHI_LON NEWDELHI_GRADE NEWDELHI_WIND NEWDELHI_PRES NEWDELHI_CI NEWDELHI_DP NEWDELHI_POCI REUNION_LAT REUNION_LON REUNION_TYPE REUNION_WIND REUNION_PRES REUNION_TNUM REUNION_CI REUNION_RMW REUNION_R34_NE REUNION_R34_SE REUNION_R34_SW REUNION_R34_NW REUNION_R50_NE REUNION_R50_SE REUNION_R50_SW REUNION_R50_NW REUNION_R64_NE REUNION_R64_SE REUNION_R64_SW REUNION_R64_NW BOM_LAT BOM_LON BOM_TYPE BOM_WIND BOM_PRES BOM_TNUM BOM_CI BOM_RMW BOM_R34_NE BOM_R34_SE BOM_R34_SW BOM_R34_NW BOM_R50_NE BOM_R50_SE BOM_R50_SW BOM_R50_NW BOM_R64_NE BOM_R64_SE BOM_R64_SW BOM_R64_NW BOM_ROCI BOM_POCI BOM_EYE BOM_POS_METHOD BOM_PRES_METHOD NADI_LAT NADI_LON NADI_CAT NADI_WIND NADI_PRES WELLINGTON_LAT WELLINGTON_LON WELLINGTON_WIND WELLINGTON_PRES DS824_LAT DS824_LON DS824_STAGE DS824_WIND DS824_PRES TD9636_LAT TD9636_LON TD9636_STAGE TD9636_WIND TD9636_PRES TD9635_LAT TD9635_LON TD9635_WIND TD9635_PRES TD9635_ROCI NEUMANN_LAT NEUMANN_LON NEUMANN_CLASS NEUMANN_WIND NEUMANN_PRES MLC_LAT MLC_LON MLC_CLASS MLC_WIND MLC_PRES USA_GUST BOM_GUST BOM_GUST_PER REUNION_GUST REUNION_GUST_PER USA_SEAHGT USA_SEARAD_NE USA_SEARAD_SE USA_SEARAD_SW USA_SEARAD_NW STORM_SPEED STORM_DIR
1978237N06160 1978 75 WP MM FAYE 1978-08-25 00:00:00 TS 5.70000 160.100 main 1347 1317 O________OO___ jtwc_wp WP151978 5.70000 160.100 TD 20 -1 5.70000 160.100 TC 20 5.70000 160.100 1 20 13 283
1978237N06160 1978 75 WP MM FAYE 1978-08-25 03:00:00 TS 5.84925 159.449 main 1310 1287 P________PP___ WP151978 5.85015 159.450 TD 20 -1 5.85015 159.450 TC 20 5.84745 159.446 1 20 13 283
1978237N06160 1978 75 WP MM FAYE 1978-08-25 06:00:00 TS 5.99854 158.798 main 1287 1258 O________OP___ jtwc_wp WP151978 6.00000 158.800 TD 20 -1 6.00000 158.800 TC 20 5.99563 158.793 1 20 13 283
1978237N06160 1978 75 WP MM FAYE 1978-08-25 09:00:00 TS 6.14861 158.148 main 1252 1237 P________PP___ WP151978 6.14992 158.150 TD 20 -1 6.14992 158.150 TC 20 6.14599 158.144 1 20 13 283
1978237N06160 1978 75 WP MM FAYE 1978-08-25 12:00:00 TS 6.30000 157.500 main 1237 1212 O________OO___ jtwc_wp WP151978 6.30000 157.500 TD 20 -1 6.30000 157.500 TC 20 6.30000 157.500 1 20 13 283
1978237N06160 1978 75 WP MM FAYE 1978-08-25 15:00:00 TS 6.44811 156.850 main 1206 1195 P________PP___ WP151978 6.44245 156.842 TD 20 -1 6.44245 156.842 TC 20 6.45945 156.864 1 20 13 284
1978237N06160 1978 75 WP MM FAYE 1978-08-25 18:00:00 TS 6.60906 156.212 main 1195 1185 O________OP___ jtwc_wp WP151978 6.60000 156.200 TD 20 -1 6.60000 156.200 TC 20 6.62719 156.235 1 20 13 286
1978237N06160 1978 75 WP MM FAYE 1978-08-25 21:00:00 TS 6.79704 155.600 main 1185 1177 P________PP___ WP151978 6.79240 155.592 TD 20 -1 6.79240 155.592 TC 20 6.80633 155.614 1 20 13 288
1978237N06160 1978 75 WP MM FAYE 1978-08-26 00:00:00 TS 7.00000 155.000 main 1178 1172 O________OO___ jtwc_wp WP151978 7.00000 155.000 TD 20 -1 7.00000 155.000 TC 20 7.00000 155.000 1 20 13 288
1978237N06160 1978 75 WP MM FAYE 1978-08-26 03:00:00 TS 7.19435 154.396 main 1175 1171 P________PP___ WP151978 7.19242 154.400 TD 20 -1 7.19242 154.400 TC 20 7.19820 154.389 1 21 13 289
1978237N06160 1978 75 WP MM FAYE 1978-08-26 06:00:00 TS 7.40406 153.795 main 1176 1173 O________OP___ jtwc_wp WP151978 7.40000 153.800 TD 20 -1 7.40000 153.800 TC 20 7.41219 153.785 1 22 13 291
1978237N06160 1978 75 WP MM FAYE 1978-08-26 09:00:00 TS 7.64333 153.191 main 1182 1182 P________PP___ WP151978 7.64245 153.192 TD 22 -1 7.64245 153.192 TC 22 7.64508 153.188 1 23 13 293
1978237N06160 1978 75 WP MM FAYE 1978-08-26 12:00:00 TS 7.90000 152.600 main 1202 1201 O________OO___ jtwc_wp WP151978 7.90000 152.600 TD 25 -1 7.90000 152.600 TC 25 7.90000 152.600 1 25 12 294
1978237N06160 1978 75 WP MM FAYE 1978-08-26 15:00:00 TS 8.14253 152.039 main 1216 1216 P________PP___ WP151978 8.13486 152.050 TD 25 -1 8.13486 152.050 TC 25 8.15785 152.017 1 25 12 295
1978237N06160 1978 75 WP MM FAYE 1978-08-26 18:00:00 TS 8.41321 151.481 main 1245 1245 O________OP___ jtwc_wp WP151978 8.40000 151.500 TD 25 -1 8.40000 151.500 TC 25 8.43963 151.442 1 25 13 298
1978237N06160 1978 75 WP MM FAYE 1978-08-26 21:00:00 TS 8.73552 150.890 main 1270 1270 P________PP___ WP151978 8.72748 150.900 TD 25 -1 8.72748 150.900 TC 25 8.75160 150.870 1 25 14 300
1978237N06160 1978 75 WP MM FAYE 1978-08-27 00:00:00 TS 9.10000 150.300 main 1295 1292 O________OO___ jtwc_wp WP151978 9.10000 150.300 TD 25 -1 9.10000 150.300 TC 25 9.10000 150.300 1 25 14 303
1978237N06160 1978 75 WP MM FAYE 1978-08-27 03:00:00 TS 9.47945 149.737 main 1324 1324 P________PP___ WP151978 9.48484 149.750 TD 25 -1 9.48484 149.750 TC 25 9.46865 149.713 1 25 14 307
1978237N06160 1978 75 WP MM FAYE 1978-08-27 06:00:00 TS 9.94283 149.151 1006 tokyo main 1359 1359 OOO______OP___ jtwc_wp WP151978 9.90000 149.200 TD 25 -1 10.5000 149.000 2 1006 0 0 0 10.0000 149.000 0 1008 9.90000 149.200 TC 25 9.87491 149.127 1 25 15 309
1978237N06160 1978 75 WP MM FAYE 1978-08-27 09:00:00 TS 10.4031 148.569 main 1406 1405 PPP______PP___ WP151978 10.3275 148.600 TD 25 -1 10.8401 148.503 2 1005 0 0 10.4376 148.548 0 1007 10.3275 148.600 TC 25 10.3187 148.553 1 25 15 310
1978237N06160 1978 75 WP MM FAYE 1978-08-27 12:00:00 TS 10.8833 148.017 1004 tokyo main 1458 1458 OOO______OO___ jtwc_wp WP151978 10.8000 148.000 TD 25 -1 11.2000 148.000 2 1004 0 0 0 10.9000 148.100 0 1006 10.8000 148.000 TC 25 10.8000 148.000 1 25 15 313
1978237N06160 1978 75 WP MM FAYE 1978-08-27 15:00:00 TS 11.3969 147.487 main 1512 1512 PPP______PP___ WP151978 11.3349 147.427 TD 25 -1 11.5925 147.492 2 1003 0 0 11.3999 147.657 0 1006 11.3349 147.427 TC 25 11.3222 147.430 1 26 15 315
1978237N06160 1978 75 WP MM FAYE 1978-08-27 18:00:00 TS 11.9155 146.978 1002 tokyo main 1568 1568 OOO______OP___ jtwc_wp WP151978 11.9000 146.900 TD 25 -1 12.0000 147.000 2 1002 0 0 0 11.9000 147.200 1 23 1006 11.9000 146.900 TC 25 11.8777 146.888 1 27 14 316
1978237N06160 1978 75 WP MM FAYE 1978-08-27 21:00:00 TS 12.4128 146.486 main 1624 1624 PPP______PP___ WP151978 12.4574 146.412 TD 27 -1 12.3625 146.520 2 1001 0 0 12.3426 146.685 1 26 1003 12.4574 146.412 TC 27 12.4442 146.402 1 28 13 318
1978237N06160 1978 75 WP MM FAYE 1978-08-28 00:00:00 TS 12.9190 146.067 1000 tokyo main 1681 1681 OOOO_____OO___ jtwc_wp WP151978 13.0000 146.000 TD 30 -1 12.8000 146.100 2 1000 0 0 0 12.8000 146.200 1 29 1000 12.9000 146.200 TD 25 1000 13.0000 146.000 TC 30 13.0000 146.000 1 30 13 325
1978237N06160 1978 75 WP MM FAYE 1978-08-28 03:00:00 TS 13.4676 145.719 main 1750 1750 PPPP_____PP___ WP151978 13.5074 145.647 TD 30 -1 13.4274 145.763 2 999 0 0 13.3424 145.805 1 29 998 13.5302 145.813 TD 25 997 13.5074 145.647 TC 30 13.5219 145.685 1 31 13 332
1978237N06160 1978 75 WP MM FAYE 1978-08-28 06:00:00 TS 14.0181 145.458 998 tokyo main 1807 1807 OOOO_____OP___ jtwc_wp WP151978 14.0000 145.400 TD 30 -1 14.1000 145.500 2 998 0 0 0 13.9000 145.500 1 29 996 14.1000 145.500 TD 25 995 14.0000 145.400 TC 30 14.0294 145.457 1 32 12 338
1978237N06160 1978 75 WP MM FAYE 1978-08-28 09:00:00 TS 14.5316 145.276 main 1865 1865 PPPP_____PP___ WP151978 14.5074 145.262 TD 32 -1 14.6800 145.262 2 998 0 0 14.3999 145.255 1 33 996 14.5724 145.312 TD 27 995 14.5074 145.262 TC 32 14.5221 145.301 1 33 10 344
1978237N06160 1978 75 WP MM FAYE 1978-08-28 12:00:00 TS 15.0167 145.167 35 998 tokyo main 1921 1921 OOOO_____OO___ jtwc_wp WP151978 15.0000 145.200 TS 35 0 15.2000 145.100 3 35 998 0 9 100 100 0 14.9000 145.100 2 38 996 15.0000 145.200 TD 30 995 15.0000 145.200 TC 35 15.0000 145.200 2 35 10 349
1978237N06160 1978 75 WP MM FAYE 1978-08-28 15:00:00 TS 15.5008 145.080 main 1978 1978 PPPP_____PP___ WP151978 15.4575 145.135 TS 35 0 15.6875 145.012 3 35 998 0 9 100 100 15.4725 145.012 2 38 996 15.4575 145.078 TD 30 995 15.4575 145.135 TC 35 15.4723 145.108 2 36 10 353
1978237N06160 1978 75 WP MM FAYE 1978-08-28 18:00:00 TS 15.9550 145.045 35 998 tokyo main 2035 2035 OOOO_____OP___ jtwc_wp WP151978 15.9000 145.100 TS 35 0 16.1000 145.000 3 35 998 0 9 100 100 0 16.0000 145.000 2 38 996 15.9000 145.000 TD 30 995 15.9000 145.100 TC 35 15.9298 145.067 2 37 9 357
1978237N06160 1978 75 WP MM FAYE 1978-08-28 21:00:00 TS 16.3550 145.046 main 2079 2078 PPPP_____PP___ WP151978 16.3575 145.085 TS 37 0 16.3925 145.028 3 40 997 0 9 112 112 16.3575 145.035 2 43 995 16.2925 144.977 TD 32 995 16.3575 145.085 TC 37 16.3724 145.068 2 38 8 3
1978237N06160 1978 75 WP MM FAYE 1978-08-29 00:00:00 TS 16.7500 145.083 45 996 tokyo main 2074 2034 OOOO_____OO___ jtwc_wp WP151978 16.8000 145.100 TS 40 0 16.7000 145.100 3 45 996 0 9 125 125 0 16.7000 145.100 3 48 994 16.7000 145.000 TS 35 995 16.8000 145.100 TC 40 16.8000 145.100 2 40 9 5
1978237N06160 1978 75 WP MM FAYE 1978-08-29 03:00:00 TS 17.1990 145.120 main 2034 1998 PPPP_____PP___ WP151978 17.2075 145.135 TS 40 0 17.1775 145.185 3 45 995 0 9 125 125 17.1700 145.135 3 48 993 17.1850 145.035 TS 35 995 17.2075 145.135 TC 40 17.2466 145.098 2 41 9 6
1978237N06160 1978 75 WP MM FAYE 1978-08-29 06:00:00 TS 17.6624 145.188 45 994 tokyo main 1988 1950 OOOO_____OP___ jtwc_wp WP151978 17.6000 145.200 TS 40 0 17.7000 145.300 3 45 994 0 9 125 125 0 17.7000 145.200 3 48 992 17.7000 145.100 TS 35 995 17.6000 145.200 TC 40 17.6745 145.130 2 42 10 9
1978237N06160 1978 75 WP MM FAYE 1978-08-29 09:00:00 TS 18.1370 145.269 main 1950 1910 PPPP_____PP___ WP151978 18.0224 145.255 TS 42 0 18.1799 145.420 3 45 993 0 9 125 125 18.2949 145.312 3 48 991 18.2374 145.148 TS 35 995 18.0224 145.255 TC 42 18.0652 145.223 2 43 9 15
1978237N06160 1978 75 WP MM FAYE 1978-08-29 12:00:00 TS 18.5500 145.433 45 992 tokyo main 1899 1883 OOOO_____OO___ jtwc_wp WP151978 18.4000 145.400 TS 45 0 18.6000 145.600 3 45 992 0 9 125 125 0 18.8000 145.500 3 48 990 18.7000 145.300 TS 35 995 18.4000 145.400 TC 45 18.4000 145.400 2 45 9 32
1978237N06160 1978 75 WP MM FAYE 1978-08-29 15:00:00 TS 18.8569 145.742 main 1875 1871 PPPP_____PP___ WP151978 18.6875 145.705 TS 45 0 18.9676 145.885 3 45 991 0 9 125 125 19.0750 145.778 3 48 990 19.0252 145.670 TS 35 992 18.6875 145.705 TC 45 18.6987 145.708 2 45 8 52
1978237N06160 1978 75 WP MM FAYE 1978-08-29 18:00:00 TS 19.0560 146.116 45 990 tokyo main 1866 1866 OOOO_____OP___ jtwc_wp WP151978 18.9000 146.100 TS 45 0 19.2000 146.200 3 45 990 0 9 125 125 0 19.2000 146.100 3 48 990 19.2000 146.100 TS 35 990 18.9000 146.100 TC 45 18.9359 146.096 2 45 8 65
1978237N06160 1978 75 WP MM FAYE 1978-08-29 21:00:00 TS 19.1775 146.467 main 1869 1869 PPPP_____PP___ WP151978 19.0876 146.515 TS 45 0 19.2524 146.450 3 45 987 0 9 125 125 19.2875 146.400 3 48 989 19.2448 146.408 TS 35 990 19.0876 146.515 TC 45 19.1050 146.512 2 45 7 76
1978237N06160 1978 75 WP MM FAYE 1978-08-30 00:00:00 TS 19.2167 146.800 45 985 tokyo main 1879 1879 OOOO_____OO___ jtwc_wp WP151978 19.2000 146.900 TS 45 0 19.2000 146.700 3 45 985 0 9 125 125 0 19.3000 146.700 3 48 988 19.2000 146.700 TS 35 990 19.2000 146.900 TC 45 19.2000 146.900 2 45 6 86
1978237N06160 1978 75 WP MM FAYE 1978-08-30 03:00:00 TS 19.2231 147.095 main 1890 1890 PPPP_____PP___ WP151978 19.2374 147.173 TS 47 0 19.1725 146.992 3 50 985 0 9 125 125 19.2725 147.000 3 53 986 19.1650 147.042 TS 37 987 19.2374 147.173 TC 47 19.2540 147.190 2 46 5 95
1978237N06160 1978 75 WP MM FAYE 1978-08-30 06:00:00 TS 19.1724 147.374 55 985 tokyo main 1902 1902 OOOO_____OP___ jtwc_wp WP151978 19.2000 147.400 TS 50 0 19.1000 147.300 4 55 985 9 50 50 9 125 125 0 19.2000 147.300 3 58 985 19.1000 147.400 TS 40 985 19.2000 147.400 TC 50 19.2345 147.445 2 47 5 104
1978237N06160 1978 75 WP MM FAYE 1978-08-30 09:00:00 TS 19.0863 147.656 main 1924 1924 PPPP_____PP___ WP151978 19.1375 147.650 TS 50 0 18.9574 147.593 4 55 985 9 50 50 9 125 125 19.1150 147.607 3 58 985 19.0225 147.757 TS 40 985 19.1375 147.650 TC 50 19.1478 147.678 2 48 6 113
1978237N06160 1978 75 WP MM FAYE 1978-08-30 12:00:00 TS 18.9500 147.933 55 985 tokyo main 1942 1952 OOOO_____OO___ jtwc_wp WP151978 19.0000 147.900 TS 50 0 18.8000 147.900 4 55 985 9 50 50 9 125 125 0 19.0000 147.900 3 58 985 18.9000 148.100 TS 40 985 19.0000 147.900 TC 50 19.0000 147.900 2 50 6 120
1978237N06160 1978 75 WP MM FAYE 1978-08-30 15:00:00 TS 18.7726 148.229 main 1975 1975 PPPP_____PP___ WP151978 18.7725 148.158 TS 50 0 18.7076 148.272 4 55 985 9 50 50 9 125 125 18.8725 148.165 3 58 985 18.7150 148.438 TS 40 985 18.7725 148.158 TC 50 18.7954 148.182 2 50 7 127
1978237N06160 1978 75 WP MM FAYE 1978-08-30 18:00:00 TS 18.5563 148.491 55 985 tokyo main 2008 2008 OOOO_____OP___ jtwc_wp WP151978 18.5000 148.400 TS 50 0 18.6000 148.600 4 55 985 9 50 50 9 125 125 0 18.7000 148.400 3 58 985 18.5000 148.700 TS 40 985 18.5000 148.400 TC 50 18.5377 148.448 2 50 6 135
1978237N06160 1978 75 WP MM FAYE 1978-08-30 21:00:00 TS 18.3235 148.709 main 2047 2047 PPPP_____PP___ WP151978 18.2425 148.638 TS 50 0 18.4299 148.818 4 55 985 9 50 50 9 125 125 18.4575 148.645 3 58 985 18.3074 148.852 TS 40 985 18.2425 148.638 TC 50 18.2610 148.666 2 50 6 146
1978237N06160 1978 75 WP MM FAYE 1978-08-31 00:00:00 TS 18.0833 148.833 55 985 tokyo main 2071 2071 OOOO_____OO___ jtwc_wp WP151978 18.0000 148.800 TS 50 0 18.2000 148.900 4 55 985 9 50 50 9 125 125 0 18.2000 148.800 3 58 985 18.1000 148.900 TS 40 985 18.0000 148.800 TC 50 18.0000 148.800 2 50 5 164
1978237N06160 1978 75 WP MM FAYE 1978-08-31 03:00:00 TS 17.8461 148.845 main 2102 2102 PPPP_____PP___ WP151978 17.7849 148.852 TS 50 0 17.8850 148.837 4 55 985 9 50 50 9 125 125 17.9925 148.802 3 58 985 17.8425 148.887 TS 42 985 17.7849 148.852 TC 50 17.7869 148.839 2 50 5 189
1978237N06160 1978 75 WP MM FAYE 1978-08-31 06:00:00 TS 17.6329 148.765 55 985 tokyo main 2123 2119 OOOO_____OP___ jtwc_wp WP151978 17.6000 148.800 TS 50 0 17.6000 148.700 4 55 985 9 50 50 9 125 125 0 17.8000 148.700 3 58 985 17.6000 148.800 TS 45 985 17.6000 148.800 TC 50 17.5972 148.792 2 50 4 206
1978237N06160 1978 75 WP MM FAYE 1978-08-31 09:00:00 TS 17.4681 148.650 main 2129 2125 PPPP_____PP___ WP151978 17.4350 148.680 TS 50 0 17.4774 148.623 4 55 985 9 50 50 9 125 125 17.5925 148.572 3 58 985 17.4350 148.673 TS 45 985 17.4350 148.680 TC 50 17.4338 148.674 2 50 4 222
1978237N06160 1978 75 WP MM FAYE 1978-08-31 12:00:00 TS 17.3333 148.483 55 985 tokyo main 2142 2138 OOOO_____OO___ jtwc_wp WP151978 17.3000 148.500 TS 50 0 17.4000 148.500 4 55 985 9 50 50 9 125 125 0 17.4000 148.400 3 58 985 17.3000 148.500 TS 45 985 17.3000 148.500 TC 50 17.3000 148.500 2 50 4 230
1978237N06160 1978 75 WP MM FAYE 1978-08-31 15:00:00 TS 17.1897 148.300 main 2145 2141 PPPP_____PP___ WP151978 17.1849 148.323 TS 52 0 17.2425 148.280 4 55 985 9 50 50 9 125 125 17.2274 148.223 3 58 985 17.1349 148.330 TS 45 985 17.1849 148.323 TC 52 17.1637 148.320 2 52 5 237
1978237N06160 1978 75 WP MM FAYE 1978-08-31 18:00:00 TS 17.0766 148.065 55 985 tokyo main 2147 2139 OOOO_____OP___ jtwc_wp WP151978 17.1000 148.100 TS 55 0 17.1000 148.000 4 55 985 9 50 50 9 125 125 0 17.1000 148.000 3 58 985 17.0000 148.100 TS 45 985 17.1000 148.100 TC 55 17.0598 148.089 2 55 5 249
1978237N06160 1978 75 WP MM FAYE 1978-08-31 21:00:00 TS 16.9989 147.781 main 2139 2136 PPPP_____PP___ WP151978 17.0274 147.830 TS 57 0 17.0125 147.715 4 55 985 9 50 50 9 125 125 17.0125 147.722 3 58 985 16.9125 147.772 TS 45 985 17.0274 147.830 TC 57 17.0011 147.814 2 57 6 261
1978237N06160 1978 75 WP MM FAYE 1978-09-01 00:00:00 TS 16.9833 147.450 55 985 tokyo main 2136 2123 OOOO_____OO___ jtwc_wp WP151978 17.0000 147.500 TS 60 0 17.0000 147.400 4 55 985 9 50 50 9 125 125 0 17.0000 147.400 3 58 985 16.9000 147.400 TS 45 985 17.0000 147.500 TC 60 17.0000 147.500 2 60 7 272
1978237N06160 1978 75 WP MM FAYE 1978-09-01 03:00:00 TS 17.0195 147.086 main 2123 2099 PPPP_____PP___ WP151978 17.0125 147.107 TS 60 0 17.0550 147.057 4 60 982 9 50 50 9 125 125 17.0550 147.057 3 63 982 16.9550 147.042 TS 47 982 17.0125 147.107 TC 60 17.0272 147.145 2 61 7 282
1978237N06160 1978 75 WP MM FAYE 1978-09-01 06:00:00 TS 17.1359 146.710 65 980 tokyo main 2099 2068 OOOO_____OP___ jtwc_wp WP151978 17.1000 146.700 TS 60 0 17.2000 146.700 5 65 980 9 50 50 9 125 125 0 17.2000 146.700 4 68 980 17.1000 146.700 STS 50 980 17.1000 146.700 TC 60 17.1154 146.757 2 62 8 293
1978237N06160 1978 75 WP MM FAYE 1978-09-01 09:00:00 TS 17.3209 146.356 main 2068 2024 PPPP_____PP___ WP151978 17.2549 146.335 TS 62 0 17.4199 146.350 5 65 977 9 50 50 9 125 125 17.4124 146.350 4 68 977 17.3124 146.400 STS 52 975 17.2549 146.335 TC 62 17.2709 146.366 2 63 8 304
1978237N06160 1978 75 WP MM FAYE 1978-09-01 12:00:00 TS 17.5833 146.017 65 975 tokyo main 2024 1983 OOOO_____OO___ jtwc_wp WP151978 17.5000 146.000 TY 65 1 17.7000 146.000 5 65 975 9 50 50 9 125 125 0 17.7000 146.000 4 68 975 17.6000 146.100 STS 55 970 17.5000 146.000 TC 65 17.5000 146.000 4 65 9 312
1978237N06160 1978 75 WP MM FAYE 1978-09-01 15:00:00 TS 17.8995 145.679 main 1983 1942 PPPP_____PP___ WP151978 17.8200 145.685 TY 65 1 17.9850 145.628 5 65 972 9 50 50 9 125 125 18.0425 145.628 4 72 970 17.9350 145.743 STS 57 965 17.8200 145.685 TC 65 17.7946 145.708 4 66 9 318
1978237N06160 1978 75 WP MM FAYE 1978-09-01 18:00:00 TS 18.2599 145.374 65 970 tokyo main 1931 1891 OOOO_____OP___ jtwc_wp WP151978 18.2000 145.400 TY 65 1 18.3000 145.300 5 65 970 9 50 50 9 125 125 0 18.4000 145.300 4 77 965 18.3000 145.400 STS 60 960 18.2000 145.400 TC 65 18.1594 145.442 4 67 9 324
1978237N06160 1978 75 WP MM FAYE 1978-09-01 21:00:00 TS 18.6169 145.134 main 1891 1842 PPPP_____PP___ WP151978 18.5849 145.150 TY 67 1 18.6349 145.085 5 67 960 9 50 50 9 125 125 18.6923 145.092 4 82 957 18.6348 145.150 STS 62 955 18.5849 145.150 TC 67 18.5696 145.180 4 68 9 329
1978237N06160 1978 75 WP MM FAYE 1978-09-02 00:00:00 TS 19.0000 144.900 70 950 tokyo main 1842 1790 OOOO_____OO___ jtwc_wp WP151978 19.0000 144.900 TY 70 1 19.0000 144.900 5 70 950 9 50 50 9 125 125 0 19.0000 144.900 5 87 950 19.0000 144.900 T 65 950 19.0000 144.900 TC 70 19.0000 144.900 4 70 9 329
1978237N06160 1978 75 WP MM FAYE 1978-09-02 03:00:00 TS 19.4187 144.619 main 1790 1736 PPPP_____PP___ WP151978 19.4499 144.622 TY 77 1 19.3849 144.672 5 80 942 9 55 45 9 125 107 19.3699 144.630 5 101 943 19.4350 144.565 T 72 942 19.4499 144.622 TC 77 19.4223 144.604 4 77 10 326
1978237N06160 1978 75 WP MM FAYE 1978-09-02 06:00:00 TS 19.8594 144.297 90 935 tokyo main 1726 1671 OOOO_____OP___ jtwc_wp WP151978 19.9000 144.300 TY 85 2 19.8000 144.400 5 90 935 2 60 40 2 125 90 0 19.8000 144.300 6 116 937 19.9000 144.200 T 80 935 19.9000 144.300 TC 85 19.8566 144.282 4 85 11 324
1978237N06160 1978 75 WP MM FAYE 1978-09-02 09:00:00 TS 20.3041 143.947 main 1667 1613 PPPP_____PP___ WP151978 20.3149 143.930 TY 92 2 20.2422 144.102 5 90 935 2 62 42 2 125 90 20.2999 143.930 6 116 936 20.3648 143.872 T 85 935 20.3149 143.930 TC 92 20.2877 143.919 4 92 11 321
1978237N06160 1978 75 WP MM FAYE 1978-09-02 12:00:00 TS 20.7333 143.533 90 935 tokyo main 1608 1549 OOOO_____OO___ jtwc_wp WP151978 20.7000 143.500 TY 100 3 20.7000 143.700 5 90 935 2 65 45 2 125 90 0 20.8000 143.500 6 116 936 20.8000 143.500 ST 90 935 20.7000 143.500 TC 100 20.7000 143.500 4 100 12 314
1978237N06160 1978 75 WP MM FAYE 1978-09-02 15:00:00 TS 21.1222 143.048 main 1545 1482 PPPP_____PP___ WP151978 21.0573 143.030 TY 102 3 21.1726 143.138 5 90 935 2 67 47 2 125 95 21.2297 143.037 6 111 936 21.1649 143.037 ST 90 935 21.0573 143.030 TC 102 21.0512 143.018 4 101 12 308
1978237N06160 1978 75 WP MM FAYE 1978-09-02 18:00:00 TS 21.4808 142.497 90 935 tokyo main 1482 1426 OOOO_____OP___ jtwc_wp WP151978 21.4000 142.500 TY 105 3 21.6000 142.500 5 90 935 2 70 50 2 125 100 0 21.6000 142.500 6 106 936 21.5000 142.500 ST 90 935 21.4000 142.500 TC 105 21.3849 142.480 4 102 13 303
1978237N06160 1978 75 WP MM FAYE 1978-09-02 21:00:00 TS 21.8051 141.904 main 1426 1372 PPPP_____PP___ WP151978 21.7349 141.922 TY 105 3 21.9073 141.899 5 90 940 2 80 55 2 137 112 21.8851 141.864 6 101 943 21.8424 141.915 ST 95 935 21.7349 141.922 TC 105 21.7260 141.902 4 103 13 301
1978237N06160 1978 75 WP MM FAYE 1978-09-03 00:00:00 TS 22.1500 141.283 90 945 tokyo main 1361 1308 OOOO_____OO___ jtwc_wp WP151978 22.1000 141.300 TY 105 3 22.2000 141.300 5 90 945 2 90 60 2 150 125 0 22.2000 141.200 5 97 950 22.2000 141.300 SuperT 100 935 22.1000 141.300 TC 105 22.1000 141.300 4 105 14 303
1978237N06160 1978 75 WP MM FAYE 1978-09-03 03:00:00 TS 22.5684 140.658 main 1297 1234 PPPP_____PP___ WP151978 22.5274 140.650 TY 102 3 22.5623 140.700 5 85 955 2 80 65 2 137 125 22.6774 140.578 5 87 960 22.5849 140.692 SuperT 100 937 22.5274 140.650 TC 102 22.5312 140.676 4 102 15 308
1978237N06160 1978 75 WP MM FAYE 1978-09-03 06:00:00 TS 23.0330 140.039 80 965 tokyo main 1231 1162 OOOO_____OP___ jtwc_wp WP151978 23.0000 140.000 TY 100 3 23.0000 140.100 5 80 965 9 70 70 9 125 125 0 23.2000 140.000 4 77 970 23.0000 140.100 SuperT 100 940 23.0000 140.000 TC 100 22.9979 140.035 4 100 15 310
1978237N06160 1978 75 WP MM FAYE 1978-09-03 09:00:00 TS 23.5145 139.449 main 1159 1091 PPPP_____PP___ WP151978 23.4848 139.377 TY 97 3 23.5424 139.493 5 80 972 9 70 70 9 125 125 23.6570 139.499 4 72 975 23.4272 139.549 SuperT 95 942 23.4848 139.377 TC 97 23.4906 139.401 4 97 15 313
1978237N06160 1978 75 WP MM FAYE 1978-09-03 12:00:00 TS 24.0167 138.883 80 980 tokyo main 1091 1024 OOOO_____OO___ jtwc_wp WP151978 24.0000 138.800 TY 95 2 24.1000 138.900 5 80 980 9 70 70 9 125 125 0 24.1000 139.000 4 68 980 23.9000 139.000 ST 90 945 24.0000 138.800 TC 95 24.0000 138.800 4 95 14 315
1978237N06160 1978 75 WP MM FAYE 1978-09-03 15:00:00 TS 24.5304 138.324 main 1022 949 PPPP_____PP___ WP151978 24.5497 138.285 TY 92 2 24.5724 138.327 5 75 982 9 60 60 9 125 125 24.5426 138.400 4 68 980 24.4425 138.393 ST 85 947 24.5497 138.285 TC 92 24.5259 138.255 4 91 14 316
1978237N06160 1978 75 WP MM FAYE 1978-09-03 18:00:00 TS 25.0440 137.791 70 985 tokyo main 949 874 OOOO_____OP___ jtwc_wp WP151978 25.1000 137.800 TY 90 2 25.0000 137.800 5 70 985 9 50 50 9 125 125 0 25.0000 137.800 4 68 980 25.0000 137.800 T 80 950 25.1000 137.800 TC 90 25.0638 137.747 4 87 14 317
1978237N06160 1978 75 WP MM FAYE 1978-09-03 21:00:00 TS 25.5322 137.296 main 874 799 PPPP_____PP___ WP151978 25.6149 137.292 TY 85 2 25.3696 137.349 5 65 985 9 35 35 9 125 92 25.4922 137.285 4 63 982 25.5071 137.292 T 75 955 25.6149 137.292 TC 85 25.5948 137.265 4 83 13 318
1978237N06160 1978 75 WP MM FAYE 1978-09-04 00:00:00 TS 26.0167 136.817 60 985 tokyo main 799 724 OOOO_____OO___ jtwc_wp WP151978 26.1000 136.800 TY 80 1 25.8000 136.900 4 60 985 9 20 20 1 125 60 0 26.0000 136.800 3 58 984 26.0000 136.800 T 70 960 26.1000 136.800 TC 80 26.1000 136.800 4 80 13 318
1978237N06160 1978 75 WP MM FAYE 1978-09-04 03:00:00 TS 26.5313 136.301 main 724 650 PPPP_____PP___ WP151978 26.5648 136.342 TY 77 1 26.4502 136.343 4 60 985 9 25 25 1 125 60 26.5150 136.285 3 58 985 26.5227 136.228 T 67 967 26.5648 136.342 TC 77 26.5703 136.267 4 76 14 318
1978237N06160 1978 75 WP MM FAYE 1978-09-04 06:00:00 TS 27.0184 135.810 60 985 tokyo main 650 590 OOOO_____OP___ jtwc_wp WP151978 27.0000 135.900 TY 75 1 27.1000 135.800 4 60 985 9 30 30 1 125 60 0 27.0000 135.800 3 58 987 27.0000 135.700 T 65 975 27.0000 135.900 TC 75 27.0106 135.758 4 72 12 317
1978237N06160 1978 75 WP MM FAYE 1978-09-04 09:00:00 TS 27.4317 135.355 main 590 531 PPPP_____PP___ WP151978 27.4151 135.413 TY 70 1 27.5524 135.339 4 60 987 9 30 30 1 125 70 27.4224 135.355 3 58 987 27.3648 135.289 T 60 980 27.4151 135.413 TC 70 27.4205 135.321 4 68 11 317
1978237N06160 1978 75 WP MM FAYE 1978-09-04 12:00:00 TS 27.8000 135.000 60 990 tokyo main 531 492 OOOO_____OO___ jtwc_wp WP151978 27.8000 135.000 TY 65 1 27.9000 135.000 4 60 990 9 30 30 1 125 80 0 27.8000 135.000 3 58 988 27.7000 135.000 STS 55 985 27.8000 135.000 TC 65 27.8000 135.000 4 65 9 324
1978237N06160 1978 75 WP MM FAYE 1978-09-04 15:00:00 TS 28.1617 134.749 main 478 453 PPPP_____PP___ WP151978 28.1648 134.710 TY 62 0 28.2073 134.790 4 55 990 9 1 125 80 28.1649 134.718 3 58 987 28.0999 134.783 STS 55 987 28.1648 134.710 TC 62 28.1686 134.783 4 62 8 336
1978237N06160 1978 75 WP MM FAYE 1978-09-04 18:00:00 TS 28.5014 134.649 50 990 tokyo main 446 429 OOOO_____OP___ jtwc_wp WP151978 28.5000 134.600 TS 60 0 28.5000 134.700 4 50 990 0 3 125 80 0 28.5000 134.600 3 58 986 28.5000 134.700 STS 55 990 28.5000 134.600 TC 60 28.5081 134.694 4 60 7 355
1978237N06160 1978 75 WP MM FAYE 1978-09-04 21:00:00 TS 28.8284 134.681 main 429 414 PPPP_____PP___ WP151978 28.8073 134.660 TS 57 0 28.8573 134.618 4 52 985 0 3 125 80 28.8149 134.682 3 58 984 28.8649 134.732 STS 52 987 28.8073 134.660 TC 57 28.8187 134.733 4 57 7 17
1978237N06160 1978 75 WP MM FAYE 1978-09-05 00:00:00 TS 29.1333 134.867 55 980 tokyo main 422 415 OOOO_____OO___ jtwc_wp WP151978 29.1000 134.900 TS 55 0 29.2000 134.700 4 55 980 9 30 30 3 125 80 0 29.1000 134.900 3 58 982 29.2000 134.900 STS 50 985 29.1000 134.900 TC 55 29.1000 134.900 2 55 7 35
1978237N06160 1978 75 WP MM FAYE 1978-09-05 03:00:00 TS 29.4326 135.164 main 423 409 PPPP_____PP___ WP151978 29.4226 135.262 TS 55 0 29.4801 135.025 4 55 980 9 30 30 3 125 80 29.3648 135.105 3 58 979 29.5225 135.155 STS 50 982 29.4226 135.262 TC 55 29.3827 135.172 2 56 8 47
1978237N06160 1978 75 WP MM FAYE 1978-09-05 06:00:00 TS 29.6889 135.561 55 980 tokyo main 412 390 OOOO_____OP___ jtwc_wp WP151978 29.7000 135.700 TS 55 0 29.7000 135.500 4 55 980 9 30 30 3 125 80 0 29.6000 135.400 3 58 976 29.8000 135.500 STS 50 980 29.7000 135.700 TC 55 29.6333 135.563 2 57 8 57
1978237N06160 1978 75 WP MM FAYE 1978-09-05 09:00:00 TS 29.8916 135.984 main 390 381 PPPP_____PP___ WP151978 29.8873 136.093 TS 57 0 29.8727 136.008 4 55 977 9 30 30 3 125 80 29.8226 135.820 3 58 975 30.0373 135.870 STS 50 977 29.8873 136.093 TC 57 29.8421 136.022 2 58 8 66
1978237N06160 1978 75 WP MM FAYE 1978-09-05 12:00:00 TS 30.0333 136.433 55 975 tokyo main 383 373 OOOO_____OO___ jtwc_wp WP151978 30.0000 136.500 TS 60 0 30.0000 136.500 4 55 975 9 30 30 3 125 80 0 30.0000 136.300 3 58 974 30.2000 136.300 STS 50 975 30.0000 136.500 TC 60 30.0000 136.500 2 60 8 73
1978237N06160 1978 75 WP MM FAYE 1978-09-05 15:00:00 TS 30.1252 136.870 main 382 377 PPPP_____PP___ WP151978 30.0650 136.950 TS 62 0 30.1220 136.850 4 62 972 9 30 30 3 125 80 30.1223 136.743 3 63 972 30.2725 136.793 STS 52 975 30.0650 136.950 TC 62 30.1044 136.935 2 62 8 79
1978237N06160 1978 75 WP MM FAYE 1978-09-05 18:00:00 TS 30.1767 137.312 70 970 tokyo main 383 383 OOOO_____OP___ jtwc_wp WP151978 30.1000 137.400 TY 65 1 30.2000 137.200 5 70 970 9 30 30 3 125 80 0 30.2000 137.200 4 68 970 30.3000 137.300 STS 55 975 30.1000 137.400 TC 65 30.1601 137.374 2 65 8 83
1978237N06160 1978 75 WP MM FAYE 1978-09-05 21:00:00 TS 30.2218 137.768 main 403 403 PPPP_____PP___ WP151978 30.1574 137.815 TY 67 1 30.2151 137.685 5 70 970 9 35 35 3 125 90 30.2576 137.715 4 68 970 30.3575 137.780 STS 60 977 30.1574 137.815 TC 67 30.1857 137.800 2 67 8 85
1978237N06160 1978 75 WP MM FAYE 1978-09-06 00:00:00 TS 30.2500 138.200 70 970 tokyo main 413 413 OOOO_____OO___ jtwc_wp WP151978 30.2000 138.200 TY 70 1 30.2000 138.200 5 70 970 9 40 40 3 125 100 0 30.3000 138.200 4 68 970 30.4000 138.200 T 65 980 30.2000 138.200 TC 70 30.2000 138.200 4 70 7 87
1978237N06160 1978 75 WP MM FAYE 1978-09-06 03:00:00 TS 30.2602 138.581 main 435 435 PPPP_____PP___ WP151978 30.1999 138.565 TY 67 1 30.1925 138.680 5 70 970 9 40 40 3 125 100 30.3423 138.588 4 68 970 30.4072 138.523 T 65 980 30.1999 138.565 TC 67 30.2196 138.566 4 66 6 88
1978237N06160 1978 75 WP MM FAYE 1978-09-06 06:00:00 TS 30.2724 138.917 70 970 tokyo main 452 452 OOOO_____OP___ jtwc_wp WP151978 30.2000 138.900 TY 65 1 30.2000 139.100 5 70 970 9 40 40 2 125 100 0 30.4000 138.900 4 68 970 30.4000 138.800 T 65 980 30.2000 138.900 TC 65 30.2345 138.903 4 62 6 85
1978237N06160 1978 75 WP MM FAYE 1978-09-06 09:00:00 TS 30.3103 139.227 main 471 471 PPPP_____PP___ WP151978 30.2349 139.215 TY 60 0 30.2349 139.445 5 70 972 9 40 40 2 125 100 30.4999 139.165 4 68 970 30.4000 139.107 T 65 980 30.2349 139.215 TC 60 30.2572 139.213 4 58 5 79
1978237N06160 1978 75 WP MM FAYE 1978-09-06 12:00:00 TS 30.3667 139.500 70 975 tokyo main 472 472 OOOO_____OO___ jtwc_wp WP151978 30.3000 139.500 TS 55 0 30.3000 139.700 5 70 975 9 40 40 3 125 100 0 30.6000 139.400 4 68 970 30.4000 139.400 T 65 980 30.3000 139.500 TC 55 30.3000 139.500 2 55 5 74
1978237N06160 1978 75 WP MM FAYE 1978-09-06 15:00:00 TS 30.4388 139.741 main 475 466 PPPP_____PP___ WP151978 30.3924 139.758 TS 52 0 30.3923 139.858 5 67 977 9 40 40 3 125 90 30.6575 139.650 4 63 972 30.3999 139.658 T 65 980 30.3924 139.758 TC 52 30.3983 139.767 2 52 4 69
1978237N06160 1978 75 WP MM FAYE 1978-09-06 18:00:00 TS 30.5191 139.969 65 980 tokyo main 470 462 OOOO_____OP___ jtwc_wp WP151978 30.5000 140.000 TS 50 0 30.5000 140.000 5 65 980 9 40 40 4 125 80 0 30.7000 139.900 3 58 975 30.4000 139.900 T 65 980 30.5000 140.000 TC 50 30.5144 140.014 2 50 4 68
1978237N06160 1978 75 WP MM FAYE 1978-09-06 21:00:00 TS 30.6030 140.209 main 464 459 PPPP_____PP___ WP151978 30.6150 140.250 TS 47 0 30.6150 140.227 5 57 982 9 4 137 115 30.7499 140.135 3 53 980 30.3999 140.135 T 57 982 30.6150 140.250 TC 47 30.6234 140.255 2 47 5 71
1978237N06160 1978 75 WP MM FAYE 1978-09-07 00:00:00 TS 30.6667 140.467 50 985 tokyo main 463 463 OOOO_____OO___ jtwc_wp WP151978 30.7000 140.500 TS 45 0 30.7000 140.500 4 50 985 0 9 150 150 0 30.8000 140.400 3 48 985 30.4000 140.400 STS 50 985 30.7000 140.500 TC 45 30.7000 140.500 2 45 5 80
1978237N06160 1978 75 WP MM FAYE 1978-09-07 03:00:00 TS 30.6885 140.760 main 473 473 PPPP_____PP___ WP151978 30.7224 140.743 TS 42 0 30.7376 140.807 4 47 988 0 9 150 150 30.8577 140.757 3 43 987 30.3926 140.743 STS 47 987 30.7224 140.743 TC 42 30.6986 140.764 2 42 5 89
1978237N06160 1978 75 WP MM FAYE 1978-09-07 06:00:00 TS 30.6775 141.056 45 992 tokyo main 481 481 OOOO_____OP___ jtwc_wp WP151978 30.7000 141.000 TS 40 0 30.7000 141.100 3 45 992 0 9 150 150 0 30.9000 141.100 2 38 990 30.4000 141.100 TS 45 990 30.7000 141.000 TC 40 30.6648 141.036 2 40 5 96
1978237N06160 1978 75 WP MM FAYE 1978-09-07 09:00:00 TS 30.6409 141.325 main 496 496 PPPP_____PP___ WP151978 30.6501 141.308 TS 37 0 30.5649 141.308 3 42 992 0 9 150 150 30.9072 141.300 2 38 992 30.4499 141.415 TS 42 990 30.6501 141.308 TC 37 30.6236 141.314 2 37 5 100
1978237N06160 1978 75 WP MM FAYE 1978-09-07 12:00:00 TS 30.6000 141.582 40 992 tokyo main 505 505 OOOO_____OO___ jtwc_wp WP151978 30.6000 141.600 TS 35 0 30.4000 141.500 3 40 992 0 9 150 150 0 30.9000 141.500 2 38 995 30.5000 141.700 TS 40 990 30.6000 141.600 TC 35 30.6000 141.600 2 35 4 99
1978237N06160 1978 75 WP MM FAYE 1978-09-07 15:00:00 TS 30.5697 141.829 main 511 511 PPPP_____PP___ WP151978 30.5875 141.822 TS 35 0 30.2624 141.735 3 40 992 0 9 150 150 30.8926 141.835 2 38 995 30.4998 141.943 TS 40 990 30.5875 141.822 TC 35 30.6059 141.809 2 4 95
1978237N06160 1978 75 WP MM FAYE 1978-09-07 18:00:00 TS 30.5636 142.097 40 992 tokyo main 521 521 OOOO_____OP___ jtwc_wp WP151978 30.6000 142.000 TD 35 0 30.2000 142.000 3 40 992 0 9 150 150 0 30.9000 142.200 2 38 995 30.5000 142.200 TS 40 990 30.6000 142.000 TC 35 30.6363 142.037 2 5 85
1978237N06160 1978 75 WP MM FAYE 1978-09-07 21:00:00 TS 30.6096 142.417 main 533 531 _PPP______P___ WP151978 TD -1 30.2623 142.270 3 40 994 0 9 150 150 30.9424 142.507 2 38 995 30.5351 142.543 TS 40 992 TC 30.6987 142.347 2 6 77
1978237N06160 1978 75 WP MM FAYE 1978-09-08 00:00:00 TS 30.7000 142.775 40 996 tokyo main 540 540 _OOO______O___ 30.4000 142.600 3 40 996 0 9 150 150 0 31.0000 142.800 2 38 995 30.6000 142.900 TS 40 995 30.8000 142.800 6 7 75
1978237N06160 1978 75 WP MM FAYE 1978-09-08 03:00:00 TS 30.8011 143.223 main 551 551 _PPP______P___ 30.5427 143.042 3 40 996 0 9 150 150 31.0499 143.100 2 38 995 30.6923 143.200 TS 40 995 30.9195 143.550 6 8 75
1978237N06160 1978 75 WP MM FAYE 1978-09-08 06:00:00 TS 30.9186 143.708 40 996 tokyo main 569 564 _OOO______P___ 30.7000 143.500 3 40 996 0 9 150 150 0 31.1000 143.400 2 38 995 30.8000 143.500 TS 40 995 31.0746 144.433 6 9 73
1978237N06160 1978 75 WP MM FAYE 1978-09-08 09:00:00 TS 31.0434 144.176 main 586 577 _PPP______P___ 30.8571 143.850 3 40 996 0 9 150 150 31.1498 143.685 2 38 995 30.9000 143.843 TS 40 995 31.2665 145.325 6 8 72
1978237N06160 1978 75 WP MM FAYE 1978-09-08 12:00:00 TS 31.1750 144.625 40 996 tokyo main 592 592 _OOO______O___ 31.0000 144.200 3 40 996 0 9 150 150 0 31.2000 144.000 2 38 995 31.0000 144.200 TS 40 995 31.5000 146.100 6 8 71
1978237N06160 1978 75 WP MM FAYE 1978-09-08 15:00:00 TS 31.3074 145.058 main 615 614 _PPP______P___ 31.1000 144.635 3 40 996 0 9 150 150 31.2500 144.385 2 38 995 31.0999 144.550 TS 40 995 31.7795 146.663 6 7 70
1978237N06160 1978 75 WP MM FAYE 1978-09-08 18:00:00 TS 31.4062 145.355 40 996 tokyo main 628 627 _OOO______P___ 31.2000 145.100 3 40 996 0 9 150 150 0 31.3000 144.800 2 38 995 31.2000 144.900 TS 40 995 32.0976 147.043 6 5 69
1978237N06160 1978 75 WP MM FAYE 1978-09-08 21:00:00 TS 31.4917 145.623 main 634 634 _PPP______P___ 31.3501 145.580 3 40 996 0 9 150 150 31.3499 145.200 2 38 995 31.2999 145.250 TS 40 995 32.4421 147.302 6 5 73
1978237N06160 1978 75 WP MM FAYE 1978-09-09 00:00:00 TS 31.5385 145.869 40 996 tokyo main 655 655 _OOO______O___ 31.5000 146.000 3 40 996 0 9 150 150 0 31.4000 145.600 2 38 995 31.4000 145.600 TS 40 995 32.8000 147.500 6 4 87
1978237N06160 1978 75 WP MM FAYE 1978-09-09 03:00:00 TS 31.5090 146.074 main 670 670 _PPP__________ 31.5997 146.273 3 40 997 0 9 150 150 31.4424 146.000 2 38 995 31.4849 145.950 TS 40 995 6 5 82
1978237N06160 1978 75 WP MM FAYE 1978-09-09 06:00:00 TS 31.6000 146.400 40 998 tokyo main 683 683 _OOO__________ 31.7000 146.500 3 40 998 0 9 150 150 0 31.5000 146.400 2 38 995 31.6000 146.300 TS 40 995 6 6 68
1978237N06160 1978 75 WP MM FAYE 1978-09-09 09:00:00 TS 31.7375 146.753 main 703 696 _PPP__________ 31.8500 146.792 3 37 998 0 9 150 150 31.5775 146.815 2 33 996 31.7849 146.650 TS 37 996 6 7 63
1978237N06160 1978 75 WP MM FAYE 1978-09-09 12:00:00 TS 31.9000 147.100 35 998 tokyo main 711 711 _OOO__________ 32.0000 147.100 3 35 998 0 9 150 150 0 31.7000 147.200 1 29 998 32.0000 147.000 TS 35 998 6 61
1978237N06160 1978 75 WP MM FAYE 1978-09-09 15:00:00 TS 32.0490 147.422 main 727 720 _PPP__________ 32.0849 147.393 3 35 999 0 9 150 150 31.8698 147.515 1 29 999 32.1925 147.358 TS 35 998 6 58
1978237N06160 1978 75 WP MM FAYE 1978-09-09 18:00:00 TS 32.2333 147.733 35 1000 tokyo main 737 737 _OOO__________ 32.2000 147.700 3 35 1000 0 9 150 150 0 32.1000 147.800 1 29 1000 32.4000 147.700 TS 35 998 6 52
1978237N06160 1978 75 WP MM FAYE 1978-09-09 21:00:00 TS 32.4346 148.014 main 749 743 _PPP__________ 32.3672 148.014 3 1002 0 9 32.3321 148.064 1 26 1002 32.6045 147.964 TS 32 1001 8 45
1978237N06160 1978 75 WP MM FAYE 1978-09-10 00:00:00 TS 32.7667 148.367 1004 tokyo main 759 758 _OOO__________ 32.7000 148.400 2 1004 0 0 0 32.7000 148.400 1 23 1004 32.9000 148.300 TD 30 1004 12 39
1978237N06160 1978 75 WP MM FAYE 1978-09-10 03:00:00 TS 33.3290 148.870 main 778 774 _PPP__________ 33.3123 148.897 2 1004 0 0 33.3198 148.882 1 23 1004 33.3549 148.833 TD 27 1004 15 38
1978237N06160 1978 75 WP MM FAYE 1978-09-10 06:00:00 TS 33.9727 149.500 1004 tokyo main 805 805 _OOO__________ 34.0000 149.500 2 1004 0 0 0 34.0000 149.500 1 23 1004 33.9000 149.500 TD 25 1004 16 43
1978237N06160 1978 75 WP MM FAYE 1978-09-10 09:00:00 TS 34.5088 150.215 main 854 854 _PPP__________ 34.5228 150.201 2 1004 0 0 34.5225 150.221 1 23 1004 34.4534 150.233 TD 25 1004 16 49
1978237N06160 1978 75 WP MM FAYE 1978-09-10 12:00:00 TS 35.0000 150.956 1004 tokyo main 916 915 _OOO__________ 35.0000 150.900 2 1004 0 0 0 35.0000 151.000 1 23 1004 35.0000 151.000 TD 25 1004 15 48
1978237N06160 1978 75 WP MM FAYE 1978-09-10 15:00:00 TS 35.4989 151.579 main 946 940 _PP___________ 35.4983 151.407 2 1005 0 0 35.4995 151.751 1 23 1004 TD 14 46
1978237N06160 1978 75 WP MM FAYE 1978-09-10 18:00:00 TS 36.0000 152.214 1006 tokyo main 966 966 _OO___________ 36.0000 152.000 2 1006 0 0 0 36.0000 152.500 1 23 1004 16 49
1978237N06160 1978 75 WP MM FAYE 1978-09-10 21:00:00 TS 36.5257 153.037 main 980 977 _PP___________ 36.5381 152.931 2 1007 0 0 36.5009 153.248 1 21 1005 17 55
1978237N06160 1978 75 WP MM FAYE 1978-09-11 00:00:00 TS 37.0000 154.000 1008 tokyo main 996 996 _OO___________ 37.0000 154.000 2 1008 0 0 0 37.0000 154.000 0 19 1006 18 64
1978237N06160 1978 75 WP MM FAYE 1978-09-11 03:00:00 TS 37.3008 155.023 main 1022 1022 _P____________ 37.3008 155.023 2 1008 0 0 0 17 73
1978237N06160 1978 75 WP MM FAYE 1978-09-11 06:00:00 TS 37.5000 156.000 1008 tokyo main 1040 _O____________ 37.5000 156.000 2 1008 0 0 0 16 76

デジタル台風データ・検索

IBTrACS Databaseについて

本データベースは、米国NOAAが公開する1842年以降の世界の熱帯低気圧のベストトラックデータアーカイブInternational Best Track Archive for Climate Stewardship (IBTrACS)を、ウェブで閲覧しやすい形式に変換したものです。

最終更新日:2021-12-03